Apolinario Saravia, Argentina
Current Conditions -  °F | °C
As of 10:00 PM on Tuesday 27 Jan 2015 (Local Time) from SASJ Reporting Station
Scattered Clouds Scattered Clouds  
Wind Chill: 79°   Ceiling: Unl
Heat Index: 80°   Visibility: 6mi
Dew Point: 61°   Wind: 0mph
Humidity: 54%   Direction: NA
Pressure: 29.83"   Gusts: NA
Location:  24.56°S, 64.14°W
Report Text: SASJ 280100Z 00000KT 9999 SCT035 FEW040CB26/16 Q1010
Loading
Personal Weather Stations






























Interactive Weather Map New forecast layout! Learn more

10-Day Weather Forecast

Advertisements
Track Severe Weather on mobile